sensor_id;sensor_type;location;lat;lon;timestamp;temperature;humidity
56044;DHT22;41912;51.022;3.664;2023-04-03T00:01:00;4.60;99.90
56044;DHT22;41912;51.022;3.664;2023-04-03T00:03:26;4.60;99.90
56044;DHT22;41912;51.022;3.664;2023-04-03T00:05:52;4.60;99.90
56044;DHT22;41912;51.022;3.664;2023-04-03T00:08:17;4.60;99.90
56044;DHT22;41912;51.022;3.664;2023-04-03T00:10:43;4.50;99.90
56044;DHT22;41912;51.022;3.664;2023-04-03T00:13:09;4.50;99.90
56044;DHT22;41912;51.022;3.664;2023-04-03T00:15:36;4.50;99.90
56044;DHT22;41912;51.022;3.664;2023-04-03T00:18:04;4.50;99.90
56044;DHT22;41912;51.022;3.664;2023-04-03T00:20:30;4.50;99.90
56044;DHT22;41912;51.022;3.664;2023-04-03T00:22:55;4.50;99.90
56044;DHT22;41912;51.022;3.664;2023-04-03T00:25:22;4.50;99.90
56044;DHT22;41912;51.022;3.664;2023-04-03T00:27:47;4.60;99.90
56044;DHT22;41912;51.022;3.664;2023-04-03T00:30:16;4.50;99.90
56044;DHT22;41912;51.022;3.664;2023-04-03T00:32:42;4.50;99.90
56044;DHT22;41912;51.022;3.664;2023-04-03T00:35:08;4.50;99.90
56044;DHT22;41912;51.022;3.664;2023-04-03T00:37:34;4.50;99.90
56044;DHT22;41912;51.022;3.664;2023-04-03T00:40:00;4.50;99.90
56044;DHT22;41912;51.022;3.664;2023-04-03T00:42:26;4.40;99.90
56044;DHT22;41912;51.022;3.664;2023-04-03T00:47:23;4.40;99.90
56044;DHT22;41912;51.022;3.664;2023-04-03T00:49:50;4.30;99.90
56044;DHT22;41912;51.022;3.664;2023-04-03T00:52:20;4.30;99.90
56044;DHT22;41912;51.022;3.664;2023-04-03T00:54:49;4.30;99.90
56044;DHT22;41912;51.022;3.664;2023-04-03T00:57:16;4.30;99.90
56044;DHT22;41912;51.022;3.664;2023-04-03T00:59:48;4.30;99.90
56044;DHT22;41912;51.022;3.664;2023-04-03T01:02:15;4.30;99.90
56044;DHT22;41912;51.022;3.664;2023-04-03T01:04:42;4.30;99.90
56044;DHT22;41912;51.022;3.664;2023-04-03T01:09:35;4.30;99.90
56044;DHT22;41912;51.022;3.664;2023-04-03T01:12:22;4.30;99.90
56044;DHT22;41912;51.022;3.664;2023-04-03T01:14:53;4.20;99.90
56044;DHT22;41912;51.022;3.664;2023-04-03T01:17:36;4.20;99.90
56044;DHT22;41912;51.022;3.664;2023-04-03T01:25:51;4.10;99.90
56044;DHT22;41912;51.022;3.664;2023-04-03T01:28:30;4.10;99.90
56044;DHT22;41912;51.022;3.664;2023-04-03T01:33:47;4.10;99.90
56044;DHT22;41912;51.022;3.664;2023-04-03T01:36:25;4.10;99.90
56044;DHT22;41912;51.022;3.664;2023-04-03T01:38:53;4.10;99.90
56044;DHT22;41912;51.022;3.664;2023-04-03T01:41:19;4.10;99.90
56044;DHT22;41912;51.022;3.664;2023-04-03T01:43:47;4.10;99.90
56044;DHT22;41912;51.022;3.664;2023-04-03T01:46:13;4.10;99.90
56044;DHT22;41912;51.022;3.664;2023-04-03T01:48:39;4.10;99.90
56044;DHT22;41912;51.022;3.664;2023-04-03T01:51:05;4.10;99.90
56044;DHT22;41912;51.022;3.664;2023-04-03T01:53:31;4.20;99.90
56044;DHT22;41912;51.022;3.664;2023-04-03T01:55:56;4.10;99.90
56044;DHT22;41912;51.022;3.664;2023-04-03T01:58:22;4.10;99.90
56044;DHT22;41912;51.022;3.664;2023-04-03T02:00:48;4.10;99.90
56044;DHT22;41912;51.022;3.664;2023-04-03T02:03:14;4.10;99.90
56044;DHT22;41912;51.022;3.664;2023-04-03T02:05:40;4.00;99.90
56044;DHT22;41912;51.022;3.664;2023-04-03T02:08:06;4.00;99.90
56044;DHT22;41912;51.022;3.664;2023-04-03T02:10:32;4.00;99.90
56044;DHT22;41912;51.022;3.664;2023-04-03T02:12:58;4.00;99.90
56044;DHT22;41912;51.022;3.664;2023-04-03T02:15:24;4.00;99.90
56044;DHT22;41912;51.022;3.664;2023-04-03T02:17:50;4.00;99.90
56044;DHT22;41912;51.022;3.664;2023-04-03T02:20:15;4.00;99.90
56044;DHT22;41912;51.022;3.664;2023-04-03T02:22:41;4.00;99.90
56044;DHT22;41912;51.022;3.664;2023-04-03T02:25:07;4.00;99.90
56044;DHT22;41912;51.022;3.664;2023-04-03T02:27:33;4.00;99.90
56044;DHT22;41912;51.022;3.664;2023-04-03T02:29:58;4.00;99.90
56044;DHT22;41912;51.022;3.664;2023-04-03T02:32:24;4.00;99.90
56044;DHT22;41912;51.022;3.664;2023-04-03T02:34:49;4.00;99.90
56044;DHT22;41912;51.022;3.664;2023-04-03T02:37:15;3.90;99.90
56044;DHT22;41912;51.022;3.664;2023-04-03T02:39:41;3.90;99.90
56044;DHT22;41912;51.022;3.664;2023-04-03T02:42:06;3.90;99.90
56044;DHT22;41912;51.022;3.664;2023-04-03T02:44:32;3.90;99.90
56044;DHT22;41912;51.022;3.664;2023-04-03T02:46:58;3.90;99.90
56044;DHT22;41912;51.022;3.664;2023-04-03T02:49:24;3.90;99.90
56044;DHT22;41912;51.022;3.664;2023-04-03T02:51:49;3.90;99.90
56044;DHT22;41912;51.022;3.664;2023-04-03T02:54:16;3.80;99.90
56044;DHT22;41912;51.022;3.664;2023-04-03T02:56:42;3.80;99.90
56044;DHT22;41912;51.022;3.664;2023-04-03T02:59:07;3.80;99.90
56044;DHT22;41912;51.022;3.664;2023-04-03T03:01:33;3.90;99.90
56044;DHT22;41912;51.022;3.664;2023-04-03T03:03:59;3.80;99.90
56044;DHT22;41912;51.022;3.664;2023-04-03T03:06:25;3.90;99.90
56044;DHT22;41912;51.022;3.664;2023-04-03T03:08:51;3.80;99.90
56044;DHT22;41912;51.022;3.664;2023-04-03T03:11:17;3.80;99.90
56044;DHT22;41912;51.022;3.664;2023-04-03T03:13:42;3.90;99.90
56044;DHT22;41912;51.022;3.664;2023-04-03T03:16:08;3.80;99.90
56044;DHT22;41912;51.022;3.664;2023-04-03T03:18:34;3.80;99.90
56044;DHT22;41912;51.022;3.664;2023-04-03T03:21:01;3.80;99.90
56044;DHT22;41912;51.022;3.664;2023-04-03T03:23:28;3.90;99.90
56044;DHT22;41912;51.022;3.664;2023-04-03T03:25:59;3.90;99.90
56044;DHT22;41912;51.022;3.664;2023-04-03T03:28:25;3.90;99.90
56044;DHT22;41912;51.022;3.664;2023-04-03T03:30:51;3.90;99.90
56044;DHT22;41912;51.022;3.664;2023-04-03T03:33:17;4.00;99.90
56044;DHT22;41912;51.022;3.664;2023-04-03T03:35:43;4.10;99.90
56044;DHT22;41912;51.022;3.664;2023-04-03T03:38:09;4.00;99.90
56044;DHT22;41912;51.022;3.664;2023-04-03T03:40:34;4.10;99.90
56044;DHT22;41912;51.022;3.664;2023-04-03T03:43:00;4.10;99.90
56044;DHT22;41912;51.022;3.664;2023-04-03T03:45:26;4.20;99.90
56044;DHT22;41912;51.022;3.664;2023-04-03T03:47:52;4.20;99.90
56044;DHT22;41912;51.022;3.664;2023-04-03T03:50:17;4.30;99.90
56044;DHT22;41912;51.022;3.664;2023-04-03T03:52:43;4.30;99.90
56044;DHT22;41912;51.022;3.664;2023-04-03T03:55:09;4.30;99.90
56044;DHT22;41912;51.022;3.664;2023-04-03T03:57:34;4.20;99.90
56044;DHT22;41912;51.022;3.664;2023-04-03T04:00:00;4.30;99.90
56044;DHT22;41912;51.022;3.664;2023-04-03T04:02:26;4.20;99.90
56044;DHT22;41912;51.022;3.664;2023-04-03T04:04:51;4.20;99.90
56044;DHT22;41912;51.022;3.664;2023-04-03T04:07:17;4.20;99.90
56044;DHT22;41912;51.022;3.664;2023-04-03T04:09:43;4.30;99.90
56044;DHT22;41912;51.022;3.664;2023-04-03T04:12:08;4.30;99.90
56044;DHT22;41912;51.022;3.664;2023-04-03T04:14:34;4.30;99.90
56044;DHT22;41912;51.022;3.664;2023-04-03T04:16:59;4.30;99.90
56044;DHT22;41912;51.022;3.664;2023-04-03T04:19:27;4.40;99.90
56044;DHT22;41912;51.022;3.664;2023-04-03T04:21:53;4.40;99.90
56044;DHT22;41912;51.022;3.664;2023-04-03T04:24:18;4.30;99.90
56044;DHT22;41912;51.022;3.664;2023-04-03T04:26:44;4.40;99.90
56044;DHT22;41912;51.022;3.664;2023-04-03T04:29:10;4.30;99.90
56044;DHT22;41912;51.022;3.664;2023-04-03T04:31:36;4.30;99.90
56044;DHT22;41912;51.022;3.664;2023-04-03T04:34:02;4.30;99.90
56044;DHT22;41912;51.022;3.664;2023-04-03T04:36:27;4.30;99.90
56044;DHT22;41912;51.022;3.664;2023-04-03T04:38:53;4.30;99.90
56044;DHT22;41912;51.022;3.664;2023-04-03T04:41:20;4.30;99.90
56044;DHT22;41912;51.022;3.664;2023-04-03T04:43:51;4.30;99.90
56044;DHT22;41912;51.022;3.664;2023-04-03T04:46:17;4.30;99.90
56044;DHT22;41912;51.022;3.664;2023-04-03T04:48:43;4.30;99.90
56044;DHT22;41912;51.022;3.664;2023-04-03T04:51:09;4.30;99.90
56044;DHT22;41912;51.022;3.664;2023-04-03T04:53:35;4.30;99.90
56044;DHT22;41912;51.022;3.664;2023-04-03T04:56:01;4.30;99.90
56044;DHT22;41912;51.022;3.664;2023-04-03T04:58:26;4.20;99.90
56044;DHT22;41912;51.022;3.664;2023-04-03T05:01:02;4.20;99.90
56044;DHT22;41912;51.022;3.664;2023-04-03T05:03:28;4.20;99.90
56044;DHT22;41912;51.022;3.664;2023-04-03T05:05:54;4.10;99.90
56044;DHT22;41912;51.022;3.664;2023-04-03T05:08:20;4.10;99.90
56044;DHT22;41912;51.022;3.664;2023-04-03T05:10:46;4.10;99.90
56044;DHT22;41912;51.022;3.664;2023-04-03T05:13:12;4.10;99.90
56044;DHT22;41912;51.022;3.664;2023-04-03T05:15:38;4.10;99.90
56044;DHT22;41912;51.022;3.664;2023-04-03T05:18:04;4.00;99.90
56044;DHT22;41912;51.022;3.664;2023-04-03T05:20:31;4.00;99.90
56044;DHT22;41912;51.022;3.664;2023-04-03T05:22:56;3.90;99.90
56044;DHT22;41912;51.022;3.664;2023-04-03T05:25:22;3.90;99.90
56044;DHT22;41912;51.022;3.664;2023-04-03T05:27:48;3.90;99.90
56044;DHT22;41912;51.022;3.664;2023-04-03T05:30:14;3.90;99.90
56044;DHT22;41912;51.022;3.664;2023-04-03T05:32:39;3.90;99.90
56044;DHT22;41912;51.022;3.664;2023-04-03T05:35:05;3.90;99.90
56044;DHT22;41912;51.022;3.664;2023-04-03T05:37:31;4.00;99.90
56044;DHT22;41912;51.022;3.664;2023-04-03T05:39:57;3.90;99.90
56044;DHT22;41912;51.022;3.664;2023-04-03T05:42:23;3.90;99.90
56044;DHT22;41912;51.022;3.664;2023-04-03T05:44:48;3.90;99.90
56044;DHT22;41912;51.022;3.664;2023-04-03T05:47:16;3.90;99.90
56044;DHT22;41912;51.022;3.664;2023-04-03T05:49:41;3.90;99.90
56044;DHT22;41912;51.022;3.664;2023-04-03T05:52:27;3.90;99.90
56044;DHT22;41912;51.022;3.664;2023-04-03T05:54:53;3.90;99.90
56044;DHT22;41912;51.022;3.664;2023-04-03T05:57:19;3.90;99.90
56044;DHT22;41912;51.022;3.664;2023-04-03T05:59:46;3.90;99.90
56044;DHT22;41912;51.022;3.664;2023-04-03T06:02:17;3.90;99.90
56044;DHT22;41912;51.022;3.664;2023-04-03T06:04:43;4.00;99.90
56044;DHT22;41912;51.022;3.664;2023-04-03T06:07:14;4.00;99.90
56044;DHT22;41912;51.022;3.664;2023-04-03T06:09:41;4.00;99.90
56044;DHT22;41912;51.022;3.664;2023-04-03T06:12:07;4.10;99.90
56044;DHT22;41912;51.022;3.664;2023-04-03T06:14:33;4.10;99.90
56044;DHT22;41912;51.022;3.664;2023-04-03T06:16:59;4.10;99.90
56044;DHT22;41912;51.022;3.664;2023-04-03T06:19:25;4.20;99.90
56044;DHT22;41912;51.022;3.664;2023-04-03T06:21:51;4.20;99.90
56044;DHT22;41912;51.022;3.664;2023-04-03T06:24:17;4.30;99.90
56044;DHT22;41912;51.022;3.664;2023-04-03T06:26:43;4.30;99.90
56044;DHT22;41912;51.022;3.664;2023-04-03T06:29:09;4.40;99.90
56044;DHT22;41912;51.022;3.664;2023-04-03T06:31:35;4.40;99.90
56044;DHT22;41912;51.022;3.664;2023-04-03T06:34:02;4.60;99.90
56044;DHT22;41912;51.022;3.664;2023-04-03T06:36:28;4.60;99.90
56044;DHT22;41912;51.022;3.664;2023-04-03T06:38:54;4.70;99.90
56044;DHT22;41912;51.022;3.664;2023-04-03T06:41:20;4.80;99.90
56044;DHT22;41912;51.022;3.664;2023-04-03T06:43:46;4.80;99.90
56044;DHT22;41912;51.022;3.664;2023-04-03T06:46:17;4.90;99.90
56044;DHT22;41912;51.022;3.664;2023-04-03T06:48:44;5.00;99.90
56044;DHT22;41912;51.022;3.664;2023-04-03T06:51:21;5.00;99.90
56044;DHT22;41912;51.022;3.664;2023-04-03T06:53:48;5.00;99.90
56044;DHT22;41912;51.022;3.664;2023-04-03T06:56:14;5.10;99.90
56044;DHT22;41912;51.022;3.664;2023-04-03T06:58:41;5.10;99.90
56044;DHT22;41912;51.022;3.664;2023-04-03T07:01:08;5.20;99.90
56044;DHT22;41912;51.022;3.664;2023-04-03T07:03:35;5.30;99.90
56044;DHT22;41912;51.022;3.664;2023-04-03T07:06:01;5.30;99.90
56044;DHT22;41912;51.022;3.664;2023-04-03T07:08:27;5.40;99.90
56044;DHT22;41912;51.022;3.664;2023-04-03T07:10:54;5.50;99.90
56044;DHT22;41912;51.022;3.664;2023-04-03T07:13:20;5.60;99.90
56044;DHT22;41912;51.022;3.664;2023-04-03T07:15:45;5.70;99.90
56044;DHT22;41912;51.022;3.664;2023-04-03T07:18:11;5.80;99.90
56044;DHT22;41912;51.022;3.664;2023-04-03T07:20:36;5.80;99.90
56044;DHT22;41912;51.022;3.664;2023-04-03T07:23:03;5.90;99.90
56044;DHT22;41912;51.022;3.664;2023-04-03T07:25:29;6.00;99.90
56044;DHT22;41912;51.022;3.664;2023-04-03T07:27:55;6.00;99.90
56044;DHT22;41912;51.022;3.664;2023-04-03T07:30:21;6.20;99.90
56044;DHT22;41912;51.022;3.664;2023-04-03T07:32:47;6.20;99.90
56044;DHT22;41912;51.022;3.664;2023-04-03T07:35:13;6.30;99.90
56044;DHT22;41912;51.022;3.664;2023-04-03T07:37:39;6.40;99.90
56044;DHT22;41912;51.022;3.664;2023-04-03T07:40:05;6.50;99.90
56044;DHT22;41912;51.022;3.664;2023-04-03T07:42:32;6.50;99.90
56044;DHT22;41912;51.022;3.664;2023-04-03T07:44:57;6.60;99.90
56044;DHT22;41912;51.022;3.664;2023-04-03T07:47:23;6.60;99.90
56044;DHT22;41912;51.022;3.664;2023-04-03T07:49:49;6.70;99.90
56044;DHT22;41912;51.022;3.664;2023-04-03T07:52:15;6.70;99.90
56044;DHT22;41912;51.022;3.664;2023-04-03T07:54:41;6.80;99.90
56044;DHT22;41912;51.022;3.664;2023-04-03T07:57:07;6.80;99.90
56044;DHT22;41912;51.022;3.664;2023-04-03T07:59:32;6.90;99.90
56044;DHT22;41912;51.022;3.664;2023-04-03T08:01:58;6.90;99.90
56044;DHT22;41912;51.022;3.664;2023-04-03T08:04:24;7.00;99.90
56044;DHT22;41912;51.022;3.664;2023-04-03T08:06:51;7.10;99.90
56044;DHT22;41912;51.022;3.664;2023-04-03T08:09:17;7.20;99.90
56044;DHT22;41912;51.022;3.664;2023-04-03T08:11:45;7.30;99.90
56044;DHT22;41912;51.022;3.664;2023-04-03T08:14:11;7.40;99.90
56044;DHT22;41912;51.022;3.664;2023-04-03T08:16:42;7.40;99.90
56044;DHT22;41912;51.022;3.664;2023-04-03T08:19:08;7.50;99.90
56044;DHT22;41912;51.022;3.664;2023-04-03T08:21:34;7.50;99.90
56044;DHT22;41912;51.022;3.664;2023-04-03T08:23:59;7.50;99.90
56044;DHT22;41912;51.022;3.664;2023-04-03T08:26:25;7.60;99.90
56044;DHT22;41912;51.022;3.664;2023-04-03T08:28:52;7.60;99.90
56044;DHT22;41912;51.022;3.664;2023-04-03T08:31:19;7.70;99.90
56044;DHT22;41912;51.022;3.664;2023-04-03T08:33:45;7.70;99.90
56044;DHT22;41912;51.022;3.664;2023-04-03T08:36:18;7.70;99.90
56044;DHT22;41912;51.022;3.664;2023-04-03T08:38:44;7.70;99.90
56044;DHT22;41912;51.022;3.664;2023-04-03T08:41:29;7.70;99.90
56044;DHT22;41912;51.022;3.664;2023-04-03T08:49:33;8.00;99.90
56044;DHT22;41912;51.022;3.664;2023-04-03T08:52:11;8.00;99.90
56044;DHT22;41912;51.022;3.664;2023-04-03T08:54:52;8.10;99.90
56044;DHT22;41912;51.022;3.664;2023-04-03T08:57:41;8.20;99.90
56044;DHT22;41912;51.022;3.664;2023-04-03T09:00:22;8.30;99.90
56044;DHT22;41912;51.022;3.664;2023-04-03T09:02:51;8.40;99.90
56044;DHT22;41912;51.022;3.664;2023-04-03T09:08:32;8.50;99.90
56044;DHT22;41912;51.022;3.664;2023-04-03T09:11:05;8.60;99.90
56044;DHT22;41912;51.022;3.664;2023-04-03T09:16:27;8.70;99.90
56044;DHT22;41912;51.022;3.664;2023-04-03T09:19:20;8.80;99.90
56044;DHT22;41912;51.022;3.664;2023-04-03T09:21:47;8.90;99.90
56044;DHT22;41912;51.022;3.664;2023-04-03T09:24:14;8.90;99.90
56044;DHT22;41912;51.022;3.664;2023-04-03T09:26:48;9.00;99.90
56044;DHT22;41912;51.022;3.664;2023-04-03T09:29:22;9.10;99.90
56044;DHT22;41912;51.022;3.664;2023-04-03T09:31:56;9.00;99.90
56044;DHT22;41912;51.022;3.664;2023-04-03T09:34:51;9.20;99.90
56044;DHT22;41912;51.022;3.664;2023-04-03T09:37:42;9.30;99.90
56044;DHT22;41912;51.022;3.664;2023-04-03T09:40:39;9.30;99.90
56044;DHT22;41912;51.022;3.664;2023-04-03T09:45:44;9.50;99.90
56044;DHT22;41912;51.022;3.664;2023-04-03T09:53:36;9.80;99.90
56044;DHT22;41912;51.022;3.664;2023-04-03T09:56:28;9.80;99.90
56044;DHT22;41912;51.022;3.664;2023-04-03T10:04:07;9.90;99.90
56044;DHT22;41912;51.022;3.664;2023-04-03T10:06:39;9.90;99.90
56044;DHT22;41912;51.022;3.664;2023-04-03T10:09:28;10.00;99.90
56044;DHT22;41912;51.022;3.664;2023-04-03T10:14:28;10.20;99.90
56044;DHT22;41912;51.022;3.664;2023-04-03T10:17:17;10.40;99.90
56044;DHT22;41912;51.022;3.664;2023-04-03T10:19:50;10.30;99.90
56044;DHT22;41912;51.022;3.664;2023-04-03T10:25:24;10.40;99.70
56044;DHT22;41912;51.022;3.664;2023-04-03T10:35:53;10.70;98.90
56044;DHT22;41912;51.022;3.664;2023-04-03T10:46:49;10.70;96.40
56044;DHT22;41912;51.022;3.664;2023-04-03T10:52:20;10.80;95.30
56044;DHT22;41912;51.022;3.664;2023-04-03T10:55:09;10.90;95.90
56044;DHT22;41912;51.022;3.664;2023-04-03T10:57:40;10.90;94.80
56044;DHT22;41912;51.022;3.664;2023-04-03T11:03:23;11.10;94.50
56044;DHT22;41912;51.022;3.664;2023-04-03T11:05:53;11.20;93.80
56044;DHT22;41912;51.022;3.664;2023-04-03T11:11:30;11.40;93.90
56044;DHT22;41912;51.022;3.664;2023-04-03T11:22:38;11.60;92.00
56044;DHT22;41912;51.022;3.664;2023-04-03T11:27:44;11.70;92.40
56044;DHT22;41912;51.022;3.664;2023-04-03T11:30:45;11.80;91.30
56044;DHT22;41912;51.022;3.664;2023-04-03T11:36:12;11.90;87.90
56044;DHT22;41912;51.022;3.664;2023-04-03T11:38:44;11.90;88.80
56044;DHT22;41912;51.022;3.664;2023-04-03T11:41:13;12.00;89.70
56044;DHT22;41912;51.022;3.664;2023-04-03T11:43:56;12.20;90.40
56044;DHT22;41912;51.022;3.664;2023-04-03T11:46:22;12.30;89.10
56044;DHT22;41912;51.022;3.664;2023-04-03T11:52:13;12.50;86.60
56044;DHT22;41912;51.022;3.664;2023-04-03T11:54:58;12.50;87.00
56044;DHT22;41912;51.022;3.664;2023-04-03T12:00:47;12.60;78.20
56044;DHT22;41912;51.022;3.664;2023-04-03T12:13:42;12.80;76.80
56044;DHT22;41912;51.022;3.664;2023-04-03T12:29:47;13.30;71.80
56044;DHT22;41912;51.022;3.664;2023-04-03T12:32:45;13.30;68.20
56044;DHT22;41912;51.022;3.664;2023-04-03T12:35:36;13.30;68.50
56044;DHT22;41912;51.022;3.664;2023-04-03T12:38:33;13.30;67.90
56044;DHT22;41912;51.022;3.664;2023-04-03T12:46:04;13.40;69.90
56044;DHT22;41912;51.022;3.664;2023-04-03T12:48:32;13.50;68.80
56044;DHT22;41912;51.022;3.664;2023-04-03T12:50:59;13.60;65.90
56044;DHT22;41912;51.022;3.664;2023-04-03T12:53:28;13.60;65.80
56044;DHT22;41912;51.022;3.664;2023-04-03T12:55:56;13.70;66.50
56044;DHT22;41912;51.022;3.664;2023-04-03T12:58:27;13.80;68.40
56044;DHT22;41912;51.022;3.664;2023-04-03T13:01:14;13.90;70.20
56044;DHT22;41912;51.022;3.664;2023-04-03T13:03:45;14.00;67.20
56044;DHT22;41912;51.022;3.664;2023-04-03T13:06:42;14.00;65.20
56044;DHT22;41912;51.022;3.664;2023-04-03T13:09:38;14.10;65.60
56044;DHT22;41912;51.022;3.664;2023-04-03T13:12:11;14.10;66.20
56044;DHT22;41912;51.022;3.664;2023-04-03T13:14:38;14.10;67.90
56044;DHT22;41912;51.022;3.664;2023-04-03T13:17:11;13.90;66.50
56044;DHT22;41912;51.022;3.664;2023-04-03T13:19:38;14.00;68.60
56044;DHT22;41912;51.022;3.664;2023-04-03T13:22:07;14.00;63.30
56044;DHT22;41912;51.022;3.664;2023-04-03T13:24:36;14.00;61.20
56044;DHT22;41912;51.022;3.664;2023-04-03T13:27:03;14.10;60.30
56044;DHT22;41912;51.022;3.664;2023-04-03T13:29:32;14.10;59.40
56044;DHT22;41912;51.022;3.664;2023-04-03T13:31:59;14.00;60.30
56044;DHT22;41912;51.022;3.664;2023-04-03T13:34:29;14.10;61.60
56044;DHT22;41912;51.022;3.664;2023-04-03T13:37:01;14.10;60.20
56044;DHT22;41912;51.022;3.664;2023-04-03T13:39:38;14.20;59.60
56044;DHT22;41912;51.022;3.664;2023-04-03T13:42:24;14.20;60.80
56044;DHT22;41912;51.022;3.664;2023-04-03T13:45:22;14.30;58.70
56044;DHT22;41912;51.022;3.664;2023-04-03T13:47:51;14.40;59.80
56044;DHT22;41912;51.022;3.664;2023-04-03T13:50:21;14.60;60.00
56044;DHT22;41912;51.022;3.664;2023-04-03T13:52:55;14.70;60.00
56044;DHT22;41912;51.022;3.664;2023-04-03T13:55:27;14.80;57.70
56044;DHT22;41912;51.022;3.664;2023-04-03T13:57:56;14.60;56.30
56044;DHT22;41912;51.022;3.664;2023-04-03T14:00:39;14.60;57.50
56044;DHT22;41912;51.022;3.664;2023-04-03T14:03:59;14.70;56.00
56044;DHT22;41912;51.022;3.664;2023-04-03T14:05:59;14.70;56.10
56044;DHT22;41912;51.022;3.664;2023-04-03T14:08:27;14.70;55.10
56044;DHT22;41912;51.022;3.664;2023-04-03T14:10:53;14.80;52.90
56044;DHT22;41912;51.022;3.664;2023-04-03T14:13:19;14.90;52.90
56044;DHT22;41912;51.022;3.664;2023-04-03T14:15:47;14.90;53.10
56044;DHT22;41912;51.022;3.664;2023-04-03T14:18:17;14.70;51.60
56044;DHT22;41912;51.022;3.664;2023-04-03T14:20:47;14.80;52.80
56044;DHT22;41912;51.022;3.664;2023-04-03T14:23:12;14.90;52.60
56044;DHT22;41912;51.022;3.664;2023-04-03T14:25:39;15.00;54.00
56044;DHT22;41912;51.022;3.664;2023-04-03T14:28:19;15.10;51.70
56044;DHT22;41912;51.022;3.664;2023-04-03T14:30:46;15.20;51.90
56044;DHT22;41912;51.022;3.664;2023-04-03T14:33:15;15.20;51.40
56044;DHT22;41912;51.022;3.664;2023-04-03T14:35:41;15.20;51.60
56044;DHT22;41912;51.022;3.664;2023-04-03T14:38:27;15.20;52.10
56044;DHT22;41912;51.022;3.664;2023-04-03T14:40:54;15.30;51.50
56044;DHT22;41912;51.022;3.664;2023-04-03T14:43:19;15.30;50.40
56044;DHT22;41912;51.022;3.664;2023-04-03T14:45:46;15.30;52.80
56044;DHT22;41912;51.022;3.664;2023-04-03T14:48:24;15.40;49.70
56044;DHT22;41912;51.022;3.664;2023-04-03T14:50:51;15.40;50.20
56044;DHT22;41912;51.022;3.664;2023-04-03T14:53:18;15.40;49.40
56044;DHT22;41912;51.022;3.664;2023-04-03T14:55:49;15.50;50.80
56044;DHT22;41912;51.022;3.664;2023-04-03T14:58:16;15.60;48.70
56044;DHT22;41912;51.022;3.664;2023-04-03T15:00:43;15.60;48.80
56044;DHT22;41912;51.022;3.664;2023-04-03T15:03:17;15.50;49.10
56044;DHT22;41912;51.022;3.664;2023-04-03T15:05:44;15.50;49.10
56044;DHT22;41912;51.022;3.664;2023-04-03T15:08:22;15.50;49.30
56044;DHT22;41912;51.022;3.664;2023-04-03T15:10:50;15.60;48.90
56044;DHT22;41912;51.022;3.664;2023-04-03T15:13:18;15.60;49.40
56044;DHT22;41912;51.022;3.664;2023-04-03T15:15:44;15.60;48.50
56044;DHT22;41912;51.022;3.664;2023-04-03T15:18:37;15.60;48.20
56044;DHT22;41912;51.022;3.664;2023-04-03T15:21:04;15.50;48.30
56044;DHT22;41912;51.022;3.664;2023-04-03T15:23:30;15.30;47.30
56044;DHT22;41912;51.022;3.664;2023-04-03T15:25:56;15.10;48.20
56044;DHT22;41912;51.022;3.664;2023-04-03T15:30:55;14.90;48.40
56044;DHT22;41912;51.022;3.664;2023-04-03T15:33:22;14.90;48.80
56044;DHT22;41912;51.022;3.664;2023-04-03T15:35:48;14.90;48.90
56044;DHT22;41912;51.022;3.664;2023-04-03T15:38:14;14.90;49.80
56044;DHT22;41912;51.022;3.664;2023-04-03T15:40:39;14.90;50.20
56044;DHT22;41912;51.022;3.664;2023-04-03T15:43:06;14.80;50.70
56044;DHT22;41912;51.022;3.664;2023-04-03T15:45:33;14.60;49.10
56044;DHT22;41912;51.022;3.664;2023-04-03T15:48:00;14.50;50.00
56044;DHT22;41912;51.022;3.664;2023-04-03T15:50:25;14.40;48.60
56044;DHT22;41912;51.022;3.664;2023-04-03T15:52:52;14.40;49.10
56044;DHT22;41912;51.022;3.664;2023-04-03T15:55:31;14.10;49.00
56044;DHT22;41912;51.022;3.664;2023-04-03T15:57:58;14.10;49.80
56044;DHT22;41912;51.022;3.664;2023-04-03T16:00:25;14.10;49.30
56044;DHT22;41912;51.022;3.664;2023-04-03T16:03:12;14.10;49.30
56044;DHT22;41912;51.022;3.664;2023-04-03T16:05:40;14.00;48.90
56044;DHT22;41912;51.022;3.664;2023-04-03T16:08:06;14.00;49.40
56044;DHT22;41912;51.022;3.664;2023-04-03T16:10:36;14.00;49.50
56044;DHT22;41912;51.022;3.664;2023-04-03T16:13:03;13.90;47.90
56044;DHT22;41912;51.022;3.664;2023-04-03T16:15:29;13.80;48.50
56044;DHT22;41912;51.022;3.664;2023-04-03T16:17:57;13.70;49.40
56044;DHT22;41912;51.022;3.664;2023-04-03T16:20:23;13.70;49.40
56044;DHT22;41912;51.022;3.664;2023-04-03T16:22:49;13.60;49.20
56044;DHT22;41912;51.022;3.664;2023-04-03T16:25:15;13.80;49.50
56044;DHT22;41912;51.022;3.664;2023-04-03T16:27:41;13.90;50.30
56044;DHT22;41912;51.022;3.664;2023-04-03T16:30:07;14.10;49.40
56044;DHT22;41912;51.022;3.664;2023-04-03T16:32:34;14.10;48.20
56044;DHT22;41912;51.022;3.664;2023-04-03T16:35:00;14.30;49.50
56044;DHT22;41912;51.022;3.664;2023-04-03T16:37:26;14.50;49.50
56044;DHT22;41912;51.022;3.664;2023-04-03T16:39:52;14.50;45.90
56044;DHT22;41912;51.022;3.664;2023-04-03T16:42:17;14.60;45.40
56044;DHT22;41912;51.022;3.664;2023-04-03T16:44:43;14.70;46.00
56044;DHT22;41912;51.022;3.664;2023-04-03T16:47:09;14.70;46.20
56044;DHT22;41912;51.022;3.664;2023-04-03T16:49:36;14.90;45.90
56044;DHT22;41912;51.022;3.664;2023-04-03T16:52:02;14.90;45.60
56044;DHT22;41912;51.022;3.664;2023-04-03T16:54:29;15.00;45.30
56044;DHT22;41912;51.022;3.664;2023-04-03T16:56:54;14.90;45.50
56044;DHT22;41912;51.022;3.664;2023-04-03T16:59:20;15.00;45.90
56044;DHT22;41912;51.022;3.664;2023-04-03T17:01:46;14.90;45.80
56044;DHT22;41912;51.022;3.664;2023-04-03T17:04:11;14.90;46.10
56044;DHT22;41912;51.022;3.664;2023-04-03T17:06:38;14.80;46.10
56044;DHT22;41912;51.022;3.664;2023-04-03T17:09:05;14.70;46.00
56044;DHT22;41912;51.022;3.664;2023-04-03T17:11:31;14.70;46.50
56044;DHT22;41912;51.022;3.664;2023-04-03T17:13:57;14.70;47.40
56044;DHT22;41912;51.022;3.664;2023-04-03T17:16:23;14.70;45.60
56044;DHT22;41912;51.022;3.664;2023-04-03T17:18:49;14.50;46.00
56044;DHT22;41912;51.022;3.664;2023-04-03T17:21:16;14.50;46.30
56044;DHT22;41912;51.022;3.664;2023-04-03T17:23:46;14.50;46.10
56044;DHT22;41912;51.022;3.664;2023-04-03T17:26:12;14.40;46.00
56044;DHT22;41912;51.022;3.664;2023-04-03T17:28:38;14.30;46.90
56044;DHT22;41912;51.022;3.664;2023-04-03T17:31:05;14.10;46.20
56044;DHT22;41912;51.022;3.664;2023-04-03T17:33:31;14.10;46.90
56044;DHT22;41912;51.022;3.664;2023-04-03T17:35:59;14.20;47.90
56044;DHT22;41912;51.022;3.664;2023-04-03T17:38:26;14.20;46.60
56044;DHT22;41912;51.022;3.664;2023-04-03T17:40:54;14.30;47.00
56044;DHT22;41912;51.022;3.664;2023-04-03T17:43:20;14.20;46.70
56044;DHT22;41912;51.022;3.664;2023-04-03T17:45:46;14.00;47.00
56044;DHT22;41912;51.022;3.664;2023-04-03T17:48:11;13.90;47.40
56044;DHT22;41912;51.022;3.664;2023-04-03T17:50:37;13.50;48.50
56044;DHT22;41912;51.022;3.664;2023-04-03T17:53:03;13.30;48.80